Time;durP1;ratioP1;P1;durP2;ratioP2;P2;SDS_P1;SDS_P2;PMS_P1;PMS_P2;Temp;Humidity;BMP_temperature;BMP_pressure;BME280_temperature;BME280_humidity;BME280_pressure;Samples;Min_cycle;Max_cycle;Signal;HPM_P1;HPM_P2
2023/01/29 00:02:22;;;;;;;;;;;;;;;2.49;100.00;102970.19;5000112;28;20013;-64
2023/01/29 00:04:48;;;;;;;;;;;;;;;2.50;100.00;102971.91;5007300;28;19925;-64
2023/01/29 00:07:14;;;;;;;;;;;;;;;2.51;100.00;102969.28;4993403;28;20467;-64
2023/01/29 00:09:40;;;;;;;;;;;;;;;2.52;100.00;102977.91;5002660;28;19929;-64
2023/01/29 00:12:10;;;;;;;;;;;;;;;2.48;100.00;102979.72;4996872;28;19929;-64
2023/01/29 00:14:36;;;;;;;;;;;;;;;2.50;100.00;102970.16;5007222;28;20037;-65
2023/01/29 00:17:03;;;;;;;;;;;;;;;2.53;100.00;102974.44;5008136;28;20410;-64
2023/01/29 00:19:29;;;;;;;;;;;;;;;2.50;100.00;102969.31;5001117;28;19934;-64
2023/01/29 00:21:55;;;;;;;;;;;;;;;2.49;100.00;102963.31;5020097;28;19920;-66
2023/01/29 00:24:22;;;;;;;;;;;;;;;2.43;100.00;102968.66;5007264;28;20029;-64
2023/01/29 00:26:49;;;;;;;;;;;;;;;2.20;100.00;102966.66;5006641;28;20301;-65
2023/01/29 00:29:16;;;;;;;;;;;;;;;2.12;100.00;102959.09;5001326;28;19929;-66
2023/01/29 00:31:43;;;;;;;;;;;;;;;1.95;100.00;102953.47;5004888;28;19937;-64
2023/01/29 00:34:10;;;;;;;;;;;;;;;1.98;100.00;102954.25;4998291;28;20028;-66
2023/01/29 00:36:36;;;;;;;;;;;;;;;2.03;100.00;102942.94;4988848;28;19929;-65
2023/01/29 00:39:09;;;;;;;;;;;;;;;2.10;100.00;102939.31;5001459;28;19936;-64
2023/01/29 00:47:29;;;;;;;;;;;;;;;2.15;100.00;102933.09;4992278;28;19930;-64
2023/01/29 00:49:53;;;;;;;;;;;;;;;2.16;100.00;102924.44;4997689;28;19925;-64
2023/01/29 00:52:23;;;;;;;;;;;;;;;2.13;100.00;102919.34;4994791;28;19926;-64
2023/01/29 00:54:49;;;;;;;;;;;;;;;2.23;100.00;102919.94;5005034;28;19980;-64
2023/01/29 00:57:16;;;;;;;;;;;;;;;2.23;100.00;102924.28;5003133;28;20326;-64
2023/01/29 00:59:42;;;;;;;;;;;;;;;2.22;100.00;102923.44;4998506;28;19926;-64
2023/01/29 01:04:54;;;;;;;;;;;;;;;2.15;100.00;102935.69;4979658;28;19929;-63
2023/01/29 01:07:20;;;;;;;;;;;;;;;2.16;100.00;102940.00;4995866;28;19930;-64
2023/01/29 01:12:31;;;;;;;;;;;;;;;2.22;100.00;102932.97;5000708;28;20003;-64
2023/01/29 01:14:57;;;;;;;;;;;;;;;2.23;100.00;102938.06;4996457;28;19932;-64
2023/01/29 01:17:24;;;;;;;;;;;;;;;2.26;100.00;102942.34;4987514;28;19926;-64
2023/01/29 01:19:50;;;;;;;;;;;;;;;2.30;100.00;102931.00;4994504;28;20382;-63
2023/01/29 01:22:17;;;;;;;;;;;;;;;2.30;100.00;102933.59;4996285;28;20346;-62
2023/01/29 01:24:43;;;;;;;;;;;;;;;2.36;100.00;102936.03;5004509;28;19930;-63
2023/01/29 01:27:10;;;;;;;;;;;;;;;2.34;100.00;102933.47;4996558;28;19983;-64
2023/01/29 01:29:36;;;;;;;;;;;;;;;2.26;100.00;102938.00;5004366;28;20016;-63
2023/01/29 01:32:03;;;;;;;;;;;;;;;2.17;100.00;102930.47;4997472;28;20020;-64
2023/01/29 01:34:29;;;;;;;;;;;;;;;2.18;100.00;102921.81;4995507;28;19936;-63
2023/01/29 01:36:56;;;;;;;;;;;;;;;2.14;100.00;102930.56;5003880;28;19936;-62
2023/01/29 01:39:23;;;;;;;;;;;;;;;2.20;100.00;102934.75;4997158;28;19968;-63
2023/01/29 01:41:52;;;;;;;;;;;;;;;2.18;100.00;102927.00;4997010;28;19929;-64
2023/01/29 01:44:37;;;;;;;;;;;;;;;2.12;100.00;102927.16;4993277;28;19937;-62
2023/01/29 01:47:03;;;;;;;;;;;;;;;2.04;100.00;102927.38;4998348;28;20375;-63
2023/01/29 01:49:30;;;;;;;;;;;;;;;2.01;100.00;102931.75;5003051;28;19964;-62
2023/01/29 01:51:57;;;;;;;;;;;;;;;1.96;100.00;102927.56;4993202;28;19930;-64
2023/01/29 01:54:25;;;;;;;;;;;;;;;1.93;100.00;102927.63;4999927;28;20725;-63
2023/01/29 01:56:54;;;;;;;;;;;;;;;1.91;100.00;102920.78;4995181;28;19930;-63
2023/01/29 01:59:21;;;;;;;;;;;;;;;1.84;100.00;102922.66;4987091;28;20338;-63
2023/01/29 02:01:49;;;;;;;;;;;;;;;1.83;100.00;102931.34;4992591;28;19987;-63
2023/01/29 02:09:52;;;;;;;;;;;;;;;1.78;100.00;102935.75;5004269;28;19930;-63
2023/01/29 02:12:19;;;;;;;;;;;;;;;1.78;100.00;102939.22;4994166;28;19972;-63
2023/01/29 02:14:46;;;;;;;;;;;;;;;1.69;100.00;102952.38;4994186;28;20488;-64
2023/01/29 02:17:14;;;;;;;;;;;;;;;1.72;100.00;102943.69;5000248;28;20275;-64
2023/01/29 02:19:46;;;;;;;;;;;;;;;1.68;100.00;102937.72;4999806;28;19972;-65
2023/01/29 02:22:24;;;;;;;;;;;;;;;1.67;100.00;102937.78;4999001;28;19940;-63
2023/01/29 02:25:08;;;;;;;;;;;;;;;1.67;100.00;102930.88;4993612;28;19936;-65
2023/01/29 02:27:34;;;;;;;;;;;;;;;1.63;100.00;102942.19;5002139;28;19933;-64
2023/01/29 02:30:22;;;;;;;;;;;;;;;1.65;100.00;102940.41;4994858;28;19933;-64
2023/01/29 02:32:57;;;;;;;;;;;;;;;1.69;100.00;102933.44;5002963;28;19952;-64
2023/01/29 02:35:33;;;;;;;;;;;;;;;1.69;100.00;102933.44;5006079;28;19929;-62
2023/01/29 02:38:02;;;;;;;;;;;;;;;1.66;100.00;102942.09;5003034;28;19930;-63
2023/01/29 02:40:34;;;;;;;;;;;;;;;1.70;100.00;102935.09;5003045;28;19929;-62
2023/01/29 02:43:05;;;;;;;;;;;;;;;1.64;100.00;102922.31;4994189;28;19938;-64
2023/01/29 02:45:39;;;;;;;;;;;;;;;1.67;100.00;102919.66;5005650;28;19934;-64
2023/01/29 02:48:10;;;;;;;;;;;;;;;1.74;100.00;102926.38;4998852;28;19983;-62
2023/01/29 02:50:39;;;;;;;;;;;;;;;1.71;100.00;102932.50;5006627;28;20378;-63
2023/01/29 02:53:15;;;;;;;;;;;;;;;1.68;100.00;102931.72;4998804;28;20322;-64
2023/01/29 02:55:44;;;;;;;;;;;;;;;1.70;100.00;102935.09;5001473;28;20444;-63
2023/01/29 02:58:30;;;;;;;;;;;;;;;1.74;100.00;102932.41;5000742;28;21038;-64
2023/01/29 03:00:59;;;;;;;;;;;;;;;1.72;100.00;102934.16;4995467;28;20310;-63
2023/01/29 03:03:29;;;;;;;;;;;;;;;1.72;100.00;102935.91;5006349;28;19929;-63
2023/01/29 03:06:17;;;;;;;;;;;;;;;1.72;100.00;102941.09;4999717;28;20150;-63
2023/01/29 03:08:48;;;;;;;;;;;;;;;1.55;100.00;102939.78;4997638;28;19968;-63
2023/01/29 03:11:16;;;;;;;;;;;;;;;1.58;100.00;102937.09;4984001;28;19963;-64
2023/01/29 03:13:48;;;;;;;;;;;;;;;1.57;100.00;102938.00;4996030;28;20579;-64
2023/01/29 03:16:19;;;;;;;;;;;;;;;1.68;100.00;102929.13;4997073;28;19937;-63
2023/01/29 03:18:49;;;;;;;;;;;;;;;1.77;100.00;102932.34;5000654;28;19929;-64
2023/01/29 03:22:00;;;;;;;;;;;;;;;1.80;100.00;102933.16;4983147;28;20306;-64
2023/01/29 03:32:55;;;;;;;;;;;;;;;1.89;100.00;102907.88;5003367;28;20382;-63
2023/01/29 03:35:34;;;;;;;;;;;;;;;1.94;100.00;102902.59;4995274;28;19925;-63
2023/01/29 03:38:02;;;;;;;;;;;;;;;1.90;100.00;102891.47;4993619;28;20023;-64
2023/01/29 03:40:49;;;;;;;;;;;;;;;1.93;100.00;102882.78;4993859;28;19930;-64
2023/01/29 03:43:24;;;;;;;;;;;;;;;2.04;100.00;102892.84;5004191;28;20044;-63
2023/01/29 03:46:01;;;;;;;;;;;;;;;1.95;100.00;102883.59;4994444;28;19929;-64
2023/01/29 03:48:34;;;;;;;;;;;;;;;1.91;100.00;102879.38;4995326;28;19930;-63
2023/01/29 03:51:00;;;;;;;;;;;;;;;1.95;100.00;102874.06;4994170;28;20503;-63
2023/01/29 03:53:29;;;;;;;;;;;;;;;1.98;100.00;102868.84;5002602;28;19930;-64
2023/01/29 03:56:11;;;;;;;;;;;;;;;2.08;100.00;102873.75;4998465;28;20412;-64
2023/01/29 03:58:41;;;;;;;;;;;;;;;2.02;100.00;102866.16;4999395;28;20469;-65
2023/01/29 04:01:12;;;;;;;;;;;;;;;2.02;100.00;102864.44;5000073;28;19929;-63
2023/01/29 04:03:41;;;;;;;;;;;;;;;1.98;100.00;102866.25;4993175;28;19929;-63
2023/01/29 04:06:10;;;;;;;;;;;;;;;2.04;100.00;102866.94;5000158;28;19929;-64
2023/01/29 04:08:57;;;;;;;;;;;;;;;2.04;100.00;102877.31;4998332;28;19929;-63
2023/01/29 04:11:24;;;;;;;;;;;;;;;2.09;100.00;102878.88;4976076;28;19930;-63
2023/01/29 04:13:51;;;;;;;;;;;;;;;2.10;100.00;102884.94;5002047;28;19929;-63
2023/01/29 04:16:22;;;;;;;;;;;;;;;2.13;100.00;102885.69;4999242;28;20437;-64
2023/01/29 04:18:49;;;;;;;;;;;;;;;2.15;100.00;102883.91;4997440;28;20017;-63
2023/01/29 04:21:16;;;;;;;;;;;;;;;2.15;100.00;102875.28;4978674;28;19936;-63
2023/01/29 04:23:42;;;;;;;;;;;;;;;2.02;100.00;102859.25;5002156;28;20586;-63
2023/01/29 04:26:23;;;;;;;;;;;;;;;2.01;100.00;102859.28;4997156;28;20007;-64
2023/01/29 04:29:08;;;;;;;;;;;;;;;1.97;100.00;102843.81;5004489;28;19929;-64
2023/01/29 04:31:45;;;;;;;;;;;;;;;1.88;100.00;102833.75;4993431;28;19936;-63
2023/01/29 04:34:17;;;;;;;;;;;;;;;1.80;100.00;102832.22;5003403;28;19972;-64
2023/01/29 04:36:52;;;;;;;;;;;;;;;1.85;100.00;102833.81;5004477;28;20381;-63
2023/01/29 04:39:21;;;;;;;;;;;;;;;1.83;100.00;102833.00;5002187;28;20415;-65
2023/01/29 04:42:01;;;;;;;;;;;;;;;1.84;100.00;102828.66;5004403;28;19925;-63
2023/01/29 04:44:28;;;;;;;;;;;;;;;1.84;100.00;102837.25;4991424;28;20373;-64
2023/01/29 04:47:06;;;;;;;;;;;;;;;1.82;100.00;102833.88;5001287;28;20310;-62
2023/01/29 04:49:35;;;;;;;;;;;;;;;1.88;100.00;102835.44;4986195;28;19951;-63
2023/01/29 04:52:09;;;;;;;;;;;;;;;2.02;100.00;102838.53;4997904;28;19929;-64
2023/01/29 04:54:57;;;;;;;;;;;;;;;2.02;100.00;102843.72;4999807;28;20296;-64
2023/01/29 04:57:24;;;;;;;;;;;;;;;2.02;100.00;102838.53;4994863;28;20382;-64
2023/01/29 04:59:59;;;;;;;;;;;;;;;1.98;100.00;102824.81;4999065;28;19936;-62
2023/01/29 05:02:27;;;;;;;;;;;;;;;2.10;100.00;102830.56;4996104;28;19937;-64
2023/01/29 05:04:55;;;;;;;;;;;;;;;2.10;100.00;102818.47;4999443;28;20072;-63
2023/01/29 05:07:23;;;;;;;;;;;;;;;2.11;100.00;102822.75;4998235;28;19925;-63
2023/01/29 05:09:49;;;;;;;;;;;;;;;2.05;100.00;102820.31;5003869;28;19936;-63
2023/01/29 05:12:17;;;;;;;;;;;;;;;2.03;100.00;102819.50;4984090;28;19937;-64
2023/01/29 05:14:44;;;;;;;;;;;;;;;2.00;100.00;102821.34;4994375;28;19929;-63
2023/01/29 05:17:18;;;;;;;;;;;;;;;2.01;100.00;102821.28;4990073;28;20364;-64
2023/01/29 05:19:45;;;;;;;;;;;;;;;1.95;100.00;102824.06;5004483;28;19971;-63
2023/01/29 05:22:14;;;;;;;;;;;;;;;1.81;100.00;102813.22;4988850;28;19929;-64
2023/01/29 05:24:40;;;;;;;;;;;;;;;1.76;100.00;102813.34;4995628;28;19997;-65
2023/01/29 05:29:56;;;;;;;;;;;;;;;1.89;100.00;102819.06;4995559;28;20279;-63
2023/01/29 05:32:22;;;;;;;;;;;;;;;1.91;100.00;102820.69;4992853;28;20739;-63
2023/01/29 05:34:48;;;;;;;;;;;;;;;1.91;100.00;102818.09;4997353;28;20333;-63
2023/01/29 05:37:15;;;;;;;;;;;;;;;1.97;100.00;102822.28;4991489;28;19932;-63
2023/01/29 05:39:41;;;;;;;;;;;;;;;1.97;100.00;102827.44;4998519;28;19964;-63
2023/01/29 05:42:07;;;;;;;;;;;;;;;1.95;100.00;102830.06;4994669;28;19937;-64
2023/01/29 05:44:34;;;;;;;;;;;;;;;1.97;100.00;102837.81;5006458;28;19933;-65
2023/01/29 05:47:01;;;;;;;;;;;;;;;2.10;100.00;102839.19;5000866;28;20305;-63
2023/01/29 05:49:27;;;;;;;;;;;;;;;2.15;100.00;102839.88;5007877;28;19945;-64
2023/01/29 05:51:54;;;;;;;;;;;;;;;2.14;100.00;102837.34;5000341;28;19940;-64
2023/01/29 05:54:20;;;;;;;;;;;;;;;2.08;100.00;102851.31;5000189;28;20700;-64
2023/01/29 05:56:47;;;;;;;;;;;;;;;2.06;100.00;102852.22;5006208;28;19926;-65
2023/01/29 05:59:14;;;;;;;;;;;;;;;2.02;100.00;102843.72;4995461;28;19925;-64
2023/01/29 06:01:40;;;;;;;;;;;;;;;1.91;100.00;102848.31;5006450;28;20317;-63
2023/01/29 06:04:07;;;;;;;;;;;;;;;1.99;100.00;102843.78;4981422;28;19934;-63
2023/01/29 06:06:33;;;;;;;;;;;;;;;2.00;100.00;102831.69;4979974;28;19934;-64
2023/01/29 06:08:59;;;;;;;;;;;;;;;2.00;100.00;102824.78;5002217;28;19939;-64
2023/01/29 06:11:26;;;;;;;;;;;;;;;2.04;100.00;102817.75;4998078;28;20365;-63
2023/01/29 06:13:52;;;;;;;;;;;;;;;2.04;100.00;102810.88;5007049;28;20357;-64
2023/01/29 06:16:18;;;;;;;;;;;;;;;1.93;100.00;102813.75;4997641;28;20401;-64
2023/01/29 06:18:45;;;;;;;;;;;;;;;1.91;100.00;102812.94;5007474;28;19937;-63
2023/01/29 06:21:12;;;;;;;;;;;;;;;1.74;100.00;102812.53;4986675;28;19930;-63
2023/01/29 06:23:39;;;;;;;;;;;;;;;1.70;100.00;102811.75;4998004;28;19980;-65
2023/01/29 06:26:06;;;;;;;;;;;;;;;1.76;100.00;102801.28;5004720;28;19971;-64
2023/01/29 06:28:33;;;;;;;;;;;;;;;1.80;100.00;102809.78;4999685;28;19938;-63
2023/01/29 06:31:03;;;;;;;;;;;;;;;1.82;100.00;102792.47;5005316;28;19930;-64
2023/01/29 06:33:49;;;;;;;;;;;;;;;1.88;100.00;102786.28;4992019;28;20183;-64
2023/01/29 06:36:16;;;;;;;;;;;;;;;1.90;100.00;102798.31;4991943;28;20132;-63
2023/01/29 06:38:42;;;;;;;;;;;;;;;2.00;100.00;102805.81;4999650;28;19936;-63
2023/01/29 06:41:09;;;;;;;;;;;;;;;2.02;100.00;102793.66;5001637;28;19988;-63
2023/01/29 06:43:36;;;;;;;;;;;;;;;2.00;100.00;102783.38;4995312;28;19933;-63
2023/01/29 06:46:03;;;;;;;;;;;;;;;1.99;100.00;102781.66;5005529;28;19929;-63
2023/01/29 06:48:29;;;;;;;;;;;;;;;2.03;100.00;102790.19;4993637;28;19925;-65
2023/01/29 06:51:00;;;;;;;;;;;;;;;2.08;100.00;102798.66;4968260;28;20396;-65
2023/01/29 06:53:26;;;;;;;;;;;;;;;2.06;100.00;102798.72;5001786;28;19930;-63
2023/01/29 06:55:53;;;;;;;;;;;;;;;2.09;100.00;102797.78;4997962;28;19936;-64
2023/01/29 06:58:19;;;;;;;;;;;;;;;2.06;100.00;102798.72;4998015;28;20274;-65
2023/01/29 07:00:46;;;;;;;;;;;;;;;2.11;100.00;102809.78;4979349;28;19936;-64
2023/01/29 07:03:12;;;;;;;;;;;;;;;2.08;100.00;102804.72;4996989;28;19936;-63
2023/01/29 07:05:39;;;;;;;;;;;;;;;2.16;100.00;102810.53;5002803;28;20284;-64
2023/01/29 07:08:05;;;;;;;;;;;;;;;2.10;100.00;102805.53;4998352;28;19929;-64
2023/01/29 07:10:32;;;;;;;;;;;;;;;2.10;100.00;102794.31;5005542;28;20345;-64
2023/01/29 07:12:58;;;;;;;;;;;;;;;2.01;100.00;102792.81;4991799;28;19937;-64
2023/01/29 07:15:25;;;;;;;;;;;;;;;2.03;100.00;102785.03;5001424;28;19929;-64
2023/01/29 07:18:12;;;;;;;;;;;;;;;1.97;100.00;102786.88;4993802;28;19930;-63
2023/01/29 07:20:39;;;;;;;;;;;;;;;1.94;100.00;102789.56;5001249;28;19930;-64
2023/01/29 07:23:07;;;;;;;;;;;;;;;1.98;100.00;102793.75;5002786;28;19933;-64
2023/01/29 07:25:34;;;;;;;;;;;;;;;1.95;100.00;102788.66;4994370;28;19956;-64
2023/01/29 07:28:01;;;;;;;;;;;;;;;1.95;100.00;102793.00;4998402;28;19929;-64
2023/01/29 07:30:27;;;;;;;;;;;;;;;1.94;100.00;102786.97;4993855;28;19930;-63
2023/01/29 07:32:54;;;;;;;;;;;;;;;1.94;100.00;102780.94;4998322;28;20384;-64
2023/01/29 07:35:21;;;;;;;;;;;;;;;2.04;100.00;102779.81;4997251;28;19930;-64
2023/01/29 07:37:50;;;;;;;;;;;;;;;2.00;100.00;102791.13;5002067;28;19925;-65
2023/01/29 07:40:23;;;;;;;;;;;;;;;2.06;100.00;102795.28;5003528;28;20313;-62
2023/01/29 07:42:56;;;;;;;;;;;;;;;2.06;100.00;102788.38;4977475;28;20275;-65
2023/01/29 07:45:22;;;;;;;;;;;;;;;2.10;100.00;102805.53;4998855;28;19936;-63
2023/01/29 07:47:53;;;;;;;;;;;;;;;2.12;100.00;102801.16;4976346;28;19929;-63
2023/01/29 07:50:23;;;;;;;;;;;;;;;2.13;100.00;102800.25;5002837;28;19952;-63
2023/01/29 07:52:49;;;;;;;;;;;;;;;2.15;100.00;102789.84;4996445;28;20296;-63
2023/01/29 07:55:16;;;;;;;;;;;;;;;2.19;100.00;102796.63;5001296;28;19988;-64
2023/01/29 07:57:43;;;;;;;;;;;;;;;2.16;100.00;102796.75;4995905;28;19972;-64
2023/01/29 08:00:10;;;;;;;;;;;;;;;2.14;100.00;102785.56;4997592;28;20009;-62
2023/01/29 08:02:37;;;;;;;;;;;;;;;2.10;100.00;102779.63;4983597;28;20561;-63
2023/01/29 08:05:04;;;;;;;;;;;;;;;2.12;100.00;102770.06;4997064;28;19971;-64
2023/01/29 08:07:30;;;;;;;;;;;;;;;2.03;100.00;102759.97;4998569;28;19936;-63
2023/01/29 08:09:56;;;;;;;;;;;;;;;2.03;100.00;102741.00;4995305;28;20386;-63
2023/01/29 08:12:23;;;;;;;;;;;;;;;2.03;100.00;102741.84;4982736;28;19964;-63
2023/01/29 08:14:49;;;;;;;;;;;;;;;2.00;100.00;102734.19;4995956;28;19933;-63
2023/01/29 08:17:16;;;;;;;;;;;;;;;2.00;100.00;102747.13;4996766;28;19983;-63
2023/01/29 08:19:42;;;;;;;;;;;;;;;1.93;100.00;102751.63;5003651;28;20496;-62
2023/01/29 08:22:08;;;;;;;;;;;;;;;1.93;100.00;102746.44;4996175;28;20009;-63
2023/01/29 08:24:35;;;;;;;;;;;;;;;2.00;100.00;102747.13;5003315;28;19941;-64
2023/01/29 08:27:21;;;;;;;;;;;;;;;2.02;100.00;102753.13;4984417;28;19936;-64
2023/01/29 08:29:48;;;;;;;;;;;;;;;2.00;100.00;102751.44;5002939;28;20320;-63
2023/01/29 08:32:14;;;;;;;;;;;;;;;2.00;100.00;102747.13;4997186;28;19930;-63
2023/01/29 08:34:41;;;;;;;;;;;;;;;2.03;100.00;102741.00;4992519;28;20385;-65
2023/01/29 08:37:07;;;;;;;;;;;;;;;2.06;100.00;102741.78;4970721;28;19988;-64
2023/01/29 08:39:34;;;;;;;;;;;;;;;2.12;100.00;102735.59;4991987;28;20711;-62
2023/01/29 08:42:00;;;;;;;;;;;;;;;2.12;100.00;102741.59;4980831;28;19937;-63
2023/01/29 08:44:27;;;;;;;;;;;;;;;2.10;100.00;102737.38;4997119;28;19929;-62
2023/01/29 08:46:53;;;;;;;;;;;;;;;2.06;100.00;102733.13;5002968;28;19936;-65
2023/01/29 08:49:20;;;;;;;;;;;;;;;2.04;100.00;102725.44;4996862;28;19936;-63
2023/01/29 08:51:46;;;;;;;;;;;;;;;2.11;100.00;102718.34;4998331;28;19929;-64
2023/01/29 08:54:13;;;;;;;;;;;;;;;2.20;100.00;102710.31;4995759;28;19936;-64
2023/01/29 08:56:39;;;;;;;;;;;;;;;2.19;100.00;102706.00;4992951;28;19929;-63
2023/01/29 08:59:05;;;;;;;;;;;;;;;2.25;100.00;102700.63;5000817;28;19941;-63
2023/01/29 09:01:32;;;;;;;;;;;;;;;2.27;100.00;102708.38;4997558;28;19936;-62
2023/01/29 09:03:58;;;;;;;;;;;;;;;2.27;100.00;102711.78;5003320;28;20307;-63
2023/01/29 09:06:25;;;;;;;;;;;;;;;2.33;100.00;102716.81;4989778;28;19934;-64
2023/01/29 09:08:51;;;;;;;;;;;;;;;2.32;100.00;102712.53;4995285;28;20525;-64
2023/01/29 09:11:17;;;;;;;;;;;;;;;2.33;100.00;102718.53;5001436;28;19936;-65
2023/01/29 09:13:44;;;;;;;;;;;;;;;2.40;100.00;102709.69;4996337;28;20611;-63
2023/01/29 09:16:10;;;;;;;;;;;;;;;2.48;100.00;102714.66;5000121;28;19977;-64
2023/01/29 09:18:36;;;;;;;;;;;;;;;2.61;100.00;102709.91;4997760;28;19979;-64
2023/01/29 09:21:03;;;;;;;;;;;;;;;2.55;100.00;102719.59;5001734;28;20317;-63
2023/01/29 09:23:30;;;;;;;;;;;;;;;2.67;100.00;102720.09;5003734;28;19937;-62
2023/01/29 09:25:57;;;;;;;;;;;;;;;2.66;100.00;102715.81;4998478;28;20613;-64
2023/01/29 09:28:23;;;;;;;;;;;;;;;2.70;100.00;102714.81;5006593;28;19936;-63
2023/01/29 09:30:50;;;;;;;;;;;;;;;2.64;100.00;102715.00;4998007;28;20459;-64
2023/01/29 09:33:17;;;;;;;;;;;;;;;2.67;100.00;102714.94;4992323;28;19933;-64
2023/01/29 09:35:45;;;;;;;;;;;;;;;2.66;100.00;102723.56;4995587;28;20361;-63
2023/01/29 09:38:12;;;;;;;;;;;;;;;2.65;100.00;102719.31;4993548;28;20297;-65
2023/01/29 09:40:41;;;;;;;;;;;;;;;2.68;100.00;102719.19;5004416;28;19940;-64
2023/01/29 09:43:10;;;;;;;;;;;;;;;2.68;100.00;102721.78;5000161;28;20408;-65
2023/01/29 09:45:48;;;;;;;;;;;;;;;2.77;100.00;102719.75;5005967;28;19936;-65
2023/01/29 09:48:15;;;;;;;;;;;;;;;2.81;100.00;102723.09;4980934;28;20495;-65
2023/01/29 09:50:44;;;;;;;;;;;;;;;2.81;100.00;102723.09;5005753;28;19933;-64
2023/01/29 09:53:20;;;;;;;;;;;;;;;2.82;100.00;102721.34;4997356;28;20772;-65
2023/01/29 09:56:10;;;;;;;;;;;;;;;2.85;100.00;102724.69;5007392;28;20195;-65
2023/01/29 09:58:41;;;;;;;;;;;;;;;2.86;100.00;102718.63;4993479;28;19930;-63
2023/01/29 10:01:08;;;;;;;;;;;;;;;2.85;100.00;102729.03;4997489;28;20084;-63
2023/01/29 10:03:34;;;;;;;;;;;;;;;2.94;100.00;102719.22;4997470;28;20012;-62
2023/01/29 10:06:13;;;;;;;;;;;;;;;2.94;100.00;102713.16;5000555;28;19936;-62
2023/01/29 10:08:58;;;;;;;;;;;;;;;2.92;100.00;102713.22;5006718;28;20500;-64
2023/01/29 10:11:36;;;;;;;;;;;;;;;3.00;100.00;102710.38;4995991;28;19934;-63
2023/01/29 10:14:10;;;;;;;;;;;;;;;3.02;100.00;102708.59;5003663;28;19929;-65
2023/01/29 10:16:56;;;;;;;;;;;;;;;2.99;100.00;102705.25;4986597;28;19929;-63
2023/01/29 10:19:32;;;;;;;;;;;;;;;3.05;100.00;102710.22;5006465;28;19941;-64
2023/01/29 10:22:04;;;;;;;;;;;;;;;3.06;100.00;102709.31;4998971;28;19936;-63
2023/01/29 10:24:47;;;;;;;;;;;;;;;3.00;100.00;102699.16;4985542;28;19964;-65
2023/01/29 10:27:15;;;;;;;;;;;;;;;3.09;100.00;102709.22;4996328;28;20473;-64
2023/01/29 10:29:42;;;;;;;;;;;;;;;3.13;100.00;102703.03;4997175;28;20144;-65
2023/01/29 10:32:17;;;;;;;;;;;;;;;3.15;100.00;102702.06;5003084;28;19952;-63
2023/01/29 10:34:49;;;;;;;;;;;;;;;3.19;100.00;102697.63;4999589;28;19929;-64
2023/01/29 10:37:22;;;;;;;;;;;;;;;3.20;100.00;102704.53;4982936;28;19952;-64
2023/01/29 10:39:49;;;;;;;;;;;;;;;3.12;100.00;102702.19;4998204;28;19936;-64
2023/01/29 10:42:45;;;;;;;;;;;;;;;3.14;100.00;102696.97;4992931;28;19955;-65
2023/01/29 10:45:25;;;;;;;;;;;;;;;3.14;100.00;102702.16;4967894;28;20413;-63
2023/01/29 10:48:18;;;;;;;;;;;;;;;3.11;99.65;102687.50;5003534;28;19930;-64
2023/01/29 10:50:51;;;;;;;;;;;;;;;3.09;98.66;102689.31;4964607;28;20392;-63
2023/01/29 10:53:29;;;;;;;;;;;;;;;3.07;98.35;102687.69;5006220;28;19933;-64
2023/01/29 10:56:04;;;;;;;;;;;;;;;3.14;99.73;102669.28;4994851;28;20396;-65
2023/01/29 10:58:47;;;;;;;;;;;;;;;3.14;99.48;102666.69;4998377;28;19933;-67
2023/01/29 11:01:13;;;;;;;;;;;;;;;3.20;100.00;102663.03;4994671;28;19937;-63
2023/01/29 11:03:40;;;;;;;;;;;;;;;3.11;98.10;102658.16;4996206;28;20008;-64
2023/01/29 11:06:11;;;;;;;;;;;;;;;3.24;98.96;102658.59;5003409;28;20247;-63
2023/01/29 11:08:56;;;;;;;;;;;;;;;3.22;98.69;102648.25;4995729;28;20160;-62
2023/01/29 11:11:49;;;;;;;;;;;;;;;3.24;99.56;102645.63;4997015;28;19925;-65
2023/01/29 11:14:20;;;;;;;;;;;;;;;3.14;97.60;102645.09;4989024;28;20478;-62
2023/01/29 11:16:47;;;;;;;;;;;;;;;3.06;97.62;102641.91;4993432;28;19937;-62
2023/01/29 11:19:14;;;;;;;;;;;;;;;3.11;99.58;102633.06;4994379;28;19926;-63
2023/01/29 11:21:57;;;;;;;;;;;;;;;3.09;98.59;102627.09;5001354;28;19937;-63
2023/01/29 11:24:24;;;;;;;;;;;;;;;3.07;99.26;102618.50;4997216;28;19929;-63
2023/01/29 11:26:51;;;;;;;;;;;;;;;3.08;98.62;102615.03;5000940;28;19976;-63
2023/01/29 11:29:33;;;;;;;;;;;;;;;3.14;100.00;102609.63;5003313;28;19940;-62
2023/01/29 11:32:01;;;;;;;;;;;;;;;3.10;98.91;102607.22;4991421;28;19925;-63
2023/01/29 11:34:29;;;;;;;;;;;;;;;3.09;98.31;102595.13;4999160;28;19930;-62
2023/01/29 11:36:58;;;;;;;;;;;;;;;3.17;99.62;102590.50;4993688;28;19929;-63
2023/01/29 11:39:26;;;;;;;;;;;;;;;3.15;98.37;102587.13;4999501;28;19952;-63
2023/01/29 11:42:03;;;;;;;;;;;;;;;3.21;99.46;102583.47;4997943;28;19948;-64
2023/01/29 11:44:31;;;;;;;;;;;;;;;3.27;98.90;102578.91;5004783;28;20449;-63
2023/01/29 11:47:08;;;;;;;;;;;;;;;3.31;97.51;102575.31;5002740;28;21879;-62
2023/01/29 11:49:35;;;;;;;;;;;;;;;3.44;100.00;102567.91;4992203;28;19972;-63
2023/01/29 11:52:03;;;;;;;;;;;;;;;3.44;97.83;102562.72;4996670;28;19936;-62
2023/01/29 11:54:33;;;;;;;;;;;;;;;3.50;97.63;102564.25;4994089;28;19952;-65
2023/01/29 11:57:01;;;;;;;;;;;;;;;3.56;97.00;102551.88;5002388;28;20322;-62
2023/01/29 11:59:27;;;;;;;;;;;;;;;3.59;97.44;102553.53;4998896;28;19925;-63
2023/01/29 12:01:54;;;;;;;;;;;;;;;3.68;96.73;102547.13;5002514;28;20455;-63
2023/01/29 12:04:22;;;;;;;;;;;;;;;3.60;95.57;102542.22;5000440;28;19943;-63
2023/01/29 12:06:51;;;;;;;;;;;;;;;3.63;96.43;102547.31;4995574;28;19952;-62
2023/01/29 12:09:28;;;;;;;;;;;;;;;3.69;96.64;102536.69;5004843;28;20371;-65
2023/01/29 12:11:54;;;;;;;;;;;;;;;3.71;97.01;102534.03;4998754;28;20055;-63
2023/01/29 12:14:20;;;;;;;;;;;;;;;3.63;96.22;102536.09;5004649;28;20301;-64
2023/01/29 12:17:05;;;;;;;;;;;;;;;3.58;96.61;102532.81;4993007;28;19929;-64
2023/01/29 12:19:37;;;;;;;;;;;;;;;3.63;97.73;102529.16;4994938;28;20404;-65
2023/01/29 12:22:19;;;;;;;;;;;;;;;3.56;97.91;102522.50;4994229;28;19949;-64
2023/01/29 12:24:51;;;;;;;;;;;;;;;3.56;97.50;102518.13;5003147;28;20425;-63
2023/01/29 12:27:28;;;;;;;;;;;;;;;3.55;98.46;102515.63;5000216;28;20421;-63
2023/01/29 12:30:16;;;;;;;;;;;;;;;3.65;99.51;102505.75;4996995;28;19929;-63
2023/01/29 12:32:53;;;;;;;;;;;;;;;3.65;98.26;102516.94;4997771;28;19938;-64
2023/01/29 12:35:19;;;;;;;;;;;;;;;3.69;99.21;102505.53;4991483;28;19938;-63
2023/01/29 12:37:59;;;;;;;;;;;;;;;3.71;98.69;102503.72;5004312;28;19925;-63
2023/01/29 12:40:28;;;;;;;;;;;;;;;3.79;99.21;102498.25;4996660;28;19929;-62
2023/01/29 12:42:57;;;;;;;;;;;;;;;3.84;98.72;102492.84;4998609;28;19929;-63
2023/01/29 12:45:25;;;;;;;;;;;;;;;3.82;98.02;102486.88;4983871;28;19925;-63
2023/01/29 12:47:58;;;;;;;;;;;;;;;3.80;98.38;102481.75;4988630;28;20520;-63
2023/01/29 12:50:31;;;;;;;;;;;;;;;3.73;98.24;102480.31;4983596;28;20023;-64
2023/01/29 12:53:04;;;;;;;;;;;;;;;3.72;100.00;102463.03;5000060;28;19937;-63
2023/01/29 12:55:46;;;;;;;;;;;;;;;3.79;99.12;102469.69;4983088;28;20659;-62
2023/01/29 12:58:15;;;;;;;;;;;;;;;3.84;98.87;102456.50;4996710;28;20035;-62
2023/01/29 13:00:50;;;;;;;;;;;;;;;3.81;98.08;102460.09;4997654;28;19929;-64
2023/01/29 13:03:20;;;;;;;;;;;;;;;3.84;99.22;102453.91;4987200;28;19929;-63
2023/01/29 13:05:51;;;;;;;;;;;;;;;3.83;99.06;102452.25;5000400;28;19930;-63
2023/01/29 13:08:34;;;;;;;;;;;;;;;3.85;99.59;102435.69;4999140;28;19936;-64
2023/01/29 13:11:03;;;;;;;;;;;;;;;3.88;99.35;102439.91;5003144;28;19930;-64
2023/01/29 13:13:31;;;;;;;;;;;;;;;3.84;100.00;102431.41;4982944;28;20341;-63
2023/01/29 13:15:59;;;;;;;;;;;;;;;3.77;99.73;102435.16;4990820;28;19933;-63
2023/01/29 13:18:36;;;;;;;;;;;;;;;3.78;100.00;102423.84;4993962;28;19980;-63
2023/01/29 13:21:03;;;;;;;;;;;;;;;3.70;100.00;102424.16;4997215;28;20032;-64
2023/01/29 13:23:39;;;;;;;;;;;;;;;3.78;100.00;102415.22;5005602;28;19925;-64